Time;durP1;ratioP1;P1;durP2;ratioP2;P2;SDS_P1;SDS_P2;PMS_P1;PMS_P2;Temp;Humidity;BMP_temperature;BMP_pressure;BME280_temperature;BME280_humidity;BME280_pressure;Samples;Min_cycle;Max_cycle;Signal;HPM_P1;HPM_P2
2022/08/04 00:01:39;;;;;;;4.17;2.92;;;;;;;14.32;72.90;95861.66;1779605;80;21114;-66
2022/08/04 00:04:19;;;;;;;6.12;3.20;;;;;;;14.28;71.76;95858.20;1779720;81;21087;-66
2022/08/04 00:06:57;;;;;;;4.28;3.02;;;;;;;14.21;72.36;95857.09;1779325;81;21026;-66
2022/08/04 00:09:49;;;;;;;3.00;2.80;;;;;;;14.17;72.67;95860.31;1779574;81;21011;-66
2022/08/04 00:12:17;;;;;;;3.52;2.90;;;;;;;14.16;72.76;95850.62;1780251;80;21031;-66
2022/08/04 00:14:50;;;;;;;3.45;2.67;;;;;;;14.01;74.09;95854.58;1787623;80;21500;-66
2022/08/04 00:17:20;;;;;;;2.95;2.67;;;;;;;14.00;73.72;95854.61;1787992;80;21014;-66
2022/08/04 00:19:49;;;;;;;3.33;3.02;;;;;;;13.97;73.95;95848.93;1787616;80;21504;-66
2022/08/04 00:22:19;;;;;;;2.98;2.77;;;;;;;13.95;74.76;95846.77;1787400;80;21023;-66
2022/08/04 00:24:46;;;;;;;3.67;2.90;;;;;;;13.96;74.36;95847.63;1787678;80;21522;-66
2022/08/04 00:27:13;;;;;;;3.12;2.83;;;;;;;13.89;75.24;95850.06;1787443;80;21030;-66
2022/08/04 00:29:40;;;;;;;3.62;2.87;;;;;;;13.89;74.45;95850.06;1787665;80;21007;-66
2022/08/04 00:32:08;;;;;;;3.00;2.77;;;;;;;13.93;75.00;95850.38;1787798;80;21010;-66
2022/08/04 00:34:36;;;;;;;7.95;2.90;;;;;;;13.95;74.85;95849.89;1787402;80;21003;-66
2022/08/04 00:37:05;;;;;;;2.80;2.60;;;;;;;13.94;75.06;95850.34;1787915;80;20988;-66
2022/08/04 00:39:33;;;;;;;3.37;2.72;;;;;;;13.90;75.01;95850.47;1787710;80;21014;-66
2022/08/04 00:42:14;;;;;;;3.15;2.85;;;;;;;13.96;75.15;95859.57;1787607;80;21002;-66
2022/08/04 00:45:21;;;;;;;2.72;2.47;;;;;;;13.97;75.38;95853.38;1787538;80;21469;-66
2022/08/04 00:48:21;;;;;;;3.00;2.80;;;;;;;13.97;74.08;95851.58;1787604;80;21485;-66
2022/08/04 00:50:59;;;;;;;5.22;3.17;;;;;;;13.94;74.21;95857.44;1787592;80;21022;-66
2022/08/04 00:54:04;;;;;;;3.10;2.80;;;;;;;13.90;74.33;95858.42;1787272;80;21039;-66
2022/08/04 00:57:02;;;;;;;2.92;2.62;;;;;;;13.83;74.04;95859.04;1787352;80;21517;-66
2022/08/04 01:00:12;;;;;;;4.55;3.05;;;;;;;13.83;74.25;95859.94;1787618;80;21022;-66
2022/08/04 01:03:20;;;;;;;3.33;3.02;;;;;;;13.97;73.83;95861.33;1787662;80;21015;-66
2022/08/04 01:06:07;;;;;;;3.60;3.10;;;;;;;14.07;73.09;95861.02;1708629;80;21140;-66
2022/08/04 01:08:51;;;;;;;4.35;3.10;;;;;;;13.98;73.94;95865.25;1787712;80;21010;-66
2022/08/04 01:11:26;;;;;;;3.37;3.08;;;;;;;13.96;73.33;95867.53;1786571;80;20979;-66
2022/08/04 01:14:15;;;;;;;3.20;2.90;;;;;;;13.92;73.56;95862.78;1785041;80;21049;-66
2022/08/04 01:16:51;;;;;;;3.95;2.75;;;;;;;13.84;73.54;95862.98;1784661;80;20967;-66
2022/08/04 01:19:55;;;;;;;3.47;3.17;;;;;;;13.82;73.28;95866.12;1785001;80;20983;-66
2022/08/04 01:22:36;;;;;;;3.42;3.12;;;;;;;13.75;73.95;95870.31;1784178;80;21031;-66
2022/08/04 01:25:27;;;;;;;3.17;2.80;;;;;;;13.77;73.31;95861.41;1785209;80;21365;-66
2022/08/04 01:28:22;;;;;;;3.10;2.83;;;;;;;13.76;72.95;95859.68;1784571;80;21046;-66
2022/08/04 01:30:53;;;;;;;3.58;3.27;;;;;;;13.59;72.76;95865.42;1784660;80;21501;-66
2022/08/04 01:33:23;;;;;;;6.42;2.83;;;;;;;13.43;75.10;95864.09;1784948;80;21045;-66
2022/08/04 01:35:56;;;;;;;3.15;2.80;;;;;;;13.35;75.95;95860.73;1785079;80;20986;-66
2022/08/04 01:38:29;;;;;;;2.95;2.67;;;;;;;13.34;75.88;95864.31;1784959;80;21002;-66
2022/08/04 01:40:59;;;;;;;3.00;2.80;;;;;;;13.29;76.50;95854.28;1785134;80;20979;-66
2022/08/04 01:43:29;;;;;;;3.40;3.05;;;;;;;13.24;76.74;95860.11;1784981;80;21071;-66
2022/08/04 01:46:02;;;;;;;4.15;2.40;;;;;;;13.31;76.33;95847.17;1785093;80;21002;-66
2022/08/04 01:48:30;;;;;;;3.22;2.92;;;;;;;13.27;75.81;95845.03;1784570;80;21082;-66
2022/08/04 01:51:04;;;;;;;3.00;2.70;;;;;;;13.23;76.01;95838.05;1785115;80;20967;-66
2022/08/04 01:53:34;;;;;;;5.75;3.37;;;;;;;13.23;76.02;95846.00;1785126;80;21476;-66
2022/08/04 01:56:03;;;;;;;3.08;2.75;;;;;;;13.24;75.84;95842.89;1785192;80;21485;-66
2022/08/04 01:58:33;;;;;;;5.33;2.80;;;;;;;13.31;75.89;95838.75;1784853;80;21532;-66
2022/08/04 02:01:04;;;;;;;3.15;2.67;;;;;;;13.38;75.38;95834.15;1784997;80;20983;-66
2022/08/04 02:03:32;;;;;;;2.83;2.60;;;;;;;13.38;74.85;95835.05;1784991;80;21473;-66
2022/08/04 02:06:05;;;;;;;2.67;2.45;;;;;;;13.24;76.10;95837.59;1784842;80;21058;-66
2022/08/04 02:08:46;;;;;;;2.80;2.60;;;;;;;13.17;75.16;95842.16;1784984;80;21544;-66
2022/08/04 02:11:17;;;;;;;3.10;2.75;;;;;;;13.19;75.29;95837.23;1783494;80;21031;-66
2022/08/04 02:14:43;;;;;;;2.98;2.47;;;;;;;13.30;75.51;95839.64;1779853;80;21493;-66
2022/08/04 02:17:14;;;;;;;2.37;2.15;;;;;;;13.33;74.58;95835.62;1779385;81;21465;-66
2022/08/04 02:19:58;;;;;;;2.95;2.50;;;;;;;13.19;74.90;95843.00;1777796;81;20988;-66
2022/08/04 02:22:28;;;;;;;2.75;2.55;;;;;;;13.09;74.94;95842.81;1779166;81;21042;-66
2022/08/04 02:25:06;;;;;;;3.07;2.77;;;;;;;13.07;75.05;95843.30;1779754;81;21003;-66
2022/08/04 02:27:41;;;;;;;2.85;2.65;;;;;;;13.06;75.51;95836.27;1779228;80;21019;-66
2022/08/04 02:30:09;;;;;;;4.67;3.77;;;;;;;12.99;76.98;95839.52;1776912;81;21027;-66
2022/08/04 02:32:40;;;;;;;4.58;3.40;;;;;;;13.01;76.30;95838.16;1779355;80;21010;-66
2022/08/04 02:35:18;;;;;;;7.00;2.90;;;;;;;12.98;76.33;95834.67;1779656;80;21035;-66
2022/08/04 02:37:52;;;;;;;2.83;2.60;;;;;;;12.95;75.88;95832.11;1779117;81;21054;-65
2022/08/04 02:40:21;;;;;;;3.27;2.98;;;;;;;12.92;76.71;95832.16;1779087;81;21002;-66
2022/08/04 02:42:49;;;;;;;2.72;2.52;;;;;;;12.85;77.12;95833.23;1779209;80;21099;-66
2022/08/04 02:45:19;;;;;;;3.40;2.65;;;;;;;12.79;77.88;95833.36;1779358;80;21011;-66
2022/08/04 02:47:47;;;;;;;3.43;2.97;;;;;;;12.80;76.60;95827.61;1779393;81;20995;-66
2022/08/04 02:50:14;;;;;;;3.83;3.10;;;;;;;12.83;76.79;95824.45;1779564;80;21010;-66
2022/08/04 02:52:42;;;;;;;4.17;3.20;;;;;;;12.82;76.29;95826.66;1779440;81;21051;-66
2022/08/04 02:55:11;;;;;;;3.08;2.87;;;;;;;12.89;75.87;95827.40;1779312;80;20983;-66
2022/08/04 02:57:39;;;;;;;2.60;2.40;;;;;;;12.84;75.62;95818.70;1779653;80;20979;-66
2022/08/04 03:00:13;;;;;;;3.00;2.80;;;;;;;12.75;77.12;95823.73;1779388;81;21472;-66
2022/08/04 03:03:21;;;;;;;4.60;3.27;;;;;;;12.70;77.78;95825.20;1779554;81;20994;-66
2022/08/04 03:05:59;;;;;;;3.05;2.75;;;;;;;12.71;77.63;95828.25;1777656;81;21026;-66
2022/08/04 03:08:31;;;;;;;3.10;2.90;;;;;;;12.67;77.74;95834.50;1775124;81;21023;-66
2022/08/04 03:11:30;;;;;;;2.83;2.47;;;;;;;12.65;77.15;95827.08;1778688;80;21533;-66
2022/08/04 03:14:17;;;;;;;2.87;2.67;;;;;;;12.71;76.82;95831.35;1779525;80;21019;-66
2022/08/04 03:17:09;;;;;;;3.45;2.40;;;;;;;12.65;77.38;95833.70;1778572;81;21027;-66
2022/08/04 03:19:49;;;;;;;3.80;2.53;;;;;;;12.65;77.43;95830.16;1779612;80;20991;-66
2022/08/04 03:22:42;;;;;;;3.05;2.75;;;;;;;12.60;77.76;95832.03;1778853;81;21051;-66
2022/08/04 03:25:31;;;;;;;3.50;2.70;;;;;;;12.62;77.01;95833.73;1706800;81;21516;-66
2022/08/04 03:28:29;;;;;;;8.63;2.93;;;;;;;12.63;76.95;95830.67;1779504;80;20986;-66
2022/08/04 03:31:19;;;;;;;2.70;2.50;;;;;;;12.71;77.30;95837.52;1744516;81;21484;-66
2022/08/04 03:34:20;;;;;;;2.33;2.12;;;;;;;12.71;76.92;95837.97;1779576;80;21070;-66
2022/08/04 03:37:31;;;;;;;2.70;2.50;;;;;;;12.78;76.87;95830.31;1779408;80;20971;-65
2022/08/04 03:40:29;;;;;;;2.40;2.20;;;;;;;12.65;77.29;95833.70;1779275;81;21062;-66
2022/08/04 03:43:10;;;;;;;3.17;2.22;;;;;;;12.68;77.48;95832.75;1724282;81;21114;-66
2022/08/04 03:45:50;;;;;;;3.00;2.70;;;;;;;12.61;78.09;95835.98;1779555;81;21007;-66
2022/08/04 03:48:58;;;;;;;3.05;2.70;;;;;;;12.62;77.92;95837.71;1736033;81;21050;-66
2022/08/04 03:55:04;;;;;;;2.65;2.45;;;;;;;12.90;78.40;95838.39;1779455;80;20998;-66
2022/08/04 03:57:48;;;;;;;3.97;2.67;;;;;;;12.98;78.61;95835.13;1778319;81;20990;-66
2022/08/04 04:00:20;;;;;;;3.50;3.20;;;;;;;13.05;78.71;95839.81;1778574;81;21046;-66
2022/08/04 04:03:30;;;;;;;3.67;2.90;;;;;;;13.13;78.40;95834.76;1779253;80;21066;-66
2022/08/04 04:06:38;;;;;;;3.15;2.85;;;;;;;13.25;78.86;95832.23;1779490;81;21049;-66
2022/08/04 04:09:43;;;;;;;3.33;2.70;;;;;;;13.34;78.14;95832.05;1777157;81;21039;-66
2022/08/04 04:12:31;;;;;;;3.00;2.70;;;;;;;13.44;77.73;95834.01;1779680;80;21054;-66
2022/08/04 04:15:32;;;;;;;3.37;3.02;;;;;;;13.64;77.73;95833.48;1779136;80;20987;-66
2022/08/04 04:18:24;;;;;;;3.77;3.40;;;;;;;13.78;76.93;95827.80;1778871;81;21058;-66
2022/08/04 04:21:37;;;;;;;3.77;3.27;;;;;;;13.95;76.86;95826.88;1779338;80;21083;-66
2022/08/04 04:24:26;;;;;;;3.72;3.42;;;;;;;14.09;76.62;95830.48;1779416;81;21492;-66
2022/08/04 04:27:07;;;;;;;3.50;3.20;;;;;;;14.21;75.41;95830.56;1779670;80;21019;-66
2022/08/04 04:30:00;;;;;;;3.95;3.55;;;;;;;14.31;74.25;95832.49;1779685;81;21411;-66
2022/08/04 04:33:07;;;;;;;4.37;3.62;;;;;;;14.39;73.82;95827.39;1779337;80;20980;-66
2022/08/04 04:36:04;;;;;;;3.95;3.55;;;;;;;14.44;73.43;95827.26;1779380;80;21038;-66
2022/08/04 04:38:44;;;;;;;5.85;3.42;;;;;;;14.48;73.34;95825.77;1778965;81;21135;-66
2022/08/04 04:41:39;;;;;;;3.65;3.30;;;;;;;14.58;72.72;95827.72;1750364;81;21039;-66
2022/08/04 04:44:14;;;;;;;3.55;3.17;;;;;;;14.64;72.42;95826.66;1744974;81;21014;-66
2022/08/04 04:47:06;;;;;;;3.72;3.42;;;;;;;14.72;73.11;95822.00;1778066;81;21563;-66
2022/08/04 04:49:47;;;;;;;3.40;3.10;;;;;;;14.82;72.71;95830.55;1779568;80;21023;-66
2022/08/04 04:52:31;;;;;;;3.37;3.08;;;;;;;14.97;73.20;95838.04;1745479;82;20971;-66
2022/08/04 04:55:21;;;;;;;3.90;3.45;;;;;;;15.06;74.27;95831.55;1750850;81;22002;-66
2022/08/04 04:57:52;;;;;;;3.75;3.10;;;;;;;15.19;73.26;95827.55;1777968;81;21010;-66
2022/08/04 05:00:20;;;;;;;3.92;3.52;;;;;;;15.32;72.37;95833.33;1779440;81;21003;-66
2022/08/04 05:02:52;;;;;;;5.30;4.55;;;;;;;15.46;72.49;95830.23;1779269;81;21010;-66
2022/08/04 05:05:57;;;;;;;3.92;3.62;;;;;;;15.56;72.51;95824.53;1779003;81;21497;-66
2022/08/04 05:08:44;;;;;;;4.17;3.80;;;;;;;15.71;72.47;95819.64;1778722;81;21007;-66
2022/08/04 05:11:46;;;;;;;4.72;3.45;;;;;;;15.89;71.92;95822.98;1778731;81;21557;-66
2022/08/04 05:14:27;;;;;;;4.15;3.00;;;;;;;16.04;71.85;95822.89;1783014;80;21058;-66
2022/08/04 05:17:16;;;;;;;3.42;3.12;;;;;;;16.21;71.35;95821.81;1784717;80;21026;-66
2022/08/04 05:19:48;;;;;;;5.22;3.33;;;;;;;16.39;70.73;95826.05;1784894;80;21559;-66
2022/08/04 05:22:26;;;;;;;3.10;2.90;;;;;;;16.55;69.46;95828.52;1784526;80;21062;-66
2022/08/04 05:24:58;;;;;;;3.67;3.00;;;;;;;16.66;68.89;95830.31;1784096;80;20983;-66
2022/08/04 05:27:30;;;;;;;3.33;3.02;;;;;;;16.80;67.10;95816.95;1783810;80;21026;-66
2022/08/04 05:30:02;;;;;;;3.33;3.02;;;;;;;16.93;67.17;95823.52;1784831;80;21547;-66
2022/08/04 05:32:36;;;;;;;3.58;3.10;;;;;;;17.06;66.79;95823.45;1784886;80;21018;-66
2022/08/04 05:35:10;;;;;;;3.45;2.83;;;;;;;17.21;67.07;95814.40;1784736;80;21492;-66
2022/08/04 05:37:39;;;;;;;5.12;3.20;;;;;;;17.38;67.11;95819.91;1784990;80;20958;-66
2022/08/04 05:40:09;;;;;;;4.28;3.00;;;;;;;17.55;67.27;95823.68;1784780;80;21019;-66
2022/08/04 05:42:39;;;;;;;3.12;2.83;;;;;;;17.74;66.92;95822.83;1784890;80;20994;-66
2022/08/04 05:45:08;;;;;;;7.55;2.67;;;;;;;17.91;64.71;95829.26;1784822;80;21010;-66
2022/08/04 05:47:36;;;;;;;3.40;2.83;;;;;;;18.03;64.53;95828.72;1784749;80;21472;-66
2022/08/04 05:50:06;;;;;;;3.22;2.80;;;;;;;18.36;64.16;95820.99;1784742;80;21015;-66
2022/08/04 05:52:35;;;;;;;5.50;3.02;;;;;;;18.36;64.16;95820.99;1758818;80;20990;-66
2022/08/04 05:55:05;;;;;;;4.05;3.10;;;;;;;18.58;63.15;95812.00;1784632;80;21027;-66
2022/08/04 05:57:32;;;;;;;3.45;2.85;;;;;;;18.58;63.15;95812.00;1784670;80;21007;-66
2022/08/04 06:00:03;;;;;;;5.40;2.80;;;;;;;18.74;62.76;95820.16;1785080;80;21072;-66
2022/08/04 06:02:32;;;;;;;3.67;2.80;;;;;;;18.88;62.78;95822.23;1785061;80;21034;-66
2022/08/04 06:05:01;;;;;;;6.22;2.70;;;;;;;19.01;62.45;95824.22;1784778;80;21006;-66
2022/08/04 06:07:28;;;;;;;3.10;2.77;;;;;;;19.19;62.36;95819.78;1785044;80;20987;-66
2022/08/04 06:09:55;;;;;;;4.58;3.12;;;;;;;19.36;62.37;95820.78;1784209;80;21089;-66
2022/08/04 06:12:33;;;;;;;4.62;3.10;;;;;;;19.51;61.54;95811.98;1784909;80;21022;-66
2022/08/04 06:15:01;;;;;;;3.12;2.80;;;;;;;19.66;60.00;95815.22;1776070;81;20999;-66
2022/08/04 06:17:36;;;;;;;5.58;2.95;;;;;;;19.82;60.15;95821.16;1778792;81;21031;-66
2022/08/04 06:20:07;;;;;;;2.83;2.58;;;;;;;19.95;59.93;95821.39;1777819;81;21027;-66
2022/08/04 06:22:38;;;;;;;5.30;2.80;;;;;;;20.14;58.91;95830.20;1779458;80;20994;-66
2022/08/04 06:25:07;;;;;;;4.28;2.83;;;;;;;20.28;58.82;95818.26;1779535;80;20999;-66
2022/08/04 06:27:35;;;;;;;2.85;2.60;;;;;;;20.42;58.25;95816.20;1779479;81;21323;-66
2022/08/04 06:30:05;;;;;;;3.10;2.80;;;;;;;20.59;56.10;95816.66;1779408;81;20979;-66
2022/08/04 06:32:46;;;;;;;3.08;2.77;;;;;;;20.77;57.19;95812.58;1779095;81;20990;-66
2022/08/04 06:35:08;;;;;;;3.75;3.00;;;;;;;20.93;57.24;95814.78;1778319;81;21047;-66
2022/08/04 06:37:36;;;;;;;3.37;2.75;;;;;;;21.09;56.30;95802.70;1779507;81;21539;-66
2022/08/04 06:40:06;;;;;;;3.30;2.72;;;;;;;21.26;56.82;95803.09;1779532;81;21081;-66
2022/08/04 06:42:33;;;;;;;3.25;2.47;;;;;;;21.44;56.32;95798.50;1779679;80;21001;-66
2022/08/04 06:45:02;;;;;;;4.97;2.83;;;;;;;21.57;52.41;95794.14;1779202;81;21015;-66
2022/08/04 06:47:31;;;;;;;4.00;2.52;;;;;;;21.74;53.59;95796.69;1779552;80;20979;-66
2022/08/04 06:49:59;;;;;;;4.80;2.80;;;;;;;21.89;53.38;95796.26;1779599;81;21078;-67
2022/08/04 06:52:26;;;;;;;6.00;2.50;;;;;;;22.06;53.11;95795.73;1779396;81;21003;-66
2022/08/04 06:54:54;;;;;;;3.15;2.50;;;;;;;22.20;50.54;95787.25;1779410;81;20994;-66
2022/08/04 06:57:29;;;;;;;3.70;2.90;;;;;;;22.39;52.41;95790.12;1779581;80;20994;-67
2022/08/04 07:00:11;;;;;;;4.33;2.60;;;;;;;22.58;52.87;95790.72;1779229;80;21040;-66
2022/08/04 07:02:51;;;;;;;4.05;2.45;;;;;;;22.77;51.79;95789.53;1778890;80;21461;-66
2022/08/04 07:05:19;;;;;;;6.47;2.85;;;;;;;22.96;51.83;95791.44;1751480;81;21003;-67
2022/08/04 07:07:46;;;;;;;6.35;3.83;;;;;;;23.13;50.26;95787.66;1779786;80;21003;-66
2022/08/04 07:10:14;;;;;;;7.30;3.60;;;;;;;23.26;48.67;95784.57;1779404;81;21015;-67
2022/08/04 07:12:42;;;;;;;6.22;3.10;;;;;;;23.41;48.73;95784.05;1779524;81;20990;-67
2022/08/04 07:15:10;;;;;;;4.95;3.33;;;;;;;23.54;48.41;95773.31;1779474;80;21030;-67
2022/08/04 07:17:39;;;;;;;8.60;3.15;;;;;;;23.70;47.64;95779.86;1779356;81;21038;-66
2022/08/04 07:20:07;;;;;;;3.65;2.95;;;;;;;23.82;47.05;95780.42;1779251;80;21868;-67
2022/08/04 07:22:35;;;;;;;6.10;3.37;;;;;;;23.98;47.28;95774.83;1779478;80;21499;-67
2022/08/04 07:25:06;;;;;;;6.65;3.20;;;;;;;24.15;46.95;95782.61;1779417;81;21010;-67
2022/08/04 07:27:33;;;;;;;5.87;3.00;;;;;;;24.28;46.36;95775.88;1779410;80;21085;-66
2022/08/04 07:29:59;;;;;;;4.15;3.20;;;;;;;24.41;46.09;95770.48;1779591;81;21011;-67
2022/08/04 07:32:27;;;;;;;6.58;2.80;;;;;;;24.50;44.86;95768.52;1779249;81;21042;-67
2022/08/04 07:34:55;;;;;;;4.58;2.80;;;;;;;24.61;44.41;95764.55;1779399;80;21003;-66
2022/08/04 07:37:22;;;;;;;3.02;2.58;;;;;;;24.76;43.99;95767.99;1779918;81;20998;-67
2022/08/04 07:39:48;;;;;;;3.35;2.55;;;;;;;24.87;44.54;95760.95;1779129;81;21038;-66
2022/08/04 07:42:20;;;;;;;4.35;2.47;;;;;;;25.03;44.93;95758.38;1779213;81;21010;-66
2022/08/04 07:44:47;;;;;;;3.17;2.72;;;;;;;25.12;43.87;95749.22;1779521;80;20960;-66
2022/08/04 07:47:14;;;;;;;3.00;2.70;;;;;;;25.21;44.18;95749.44;1779495;80;20987;-66
2022/08/04 07:49:43;;;;;;;3.80;2.80;;;;;;;25.31;43.30;95756.86;1779042;81;20979;-66
2022/08/04 07:52:11;;;;;;;3.12;2.83;;;;;;;25.42;43.64;95759.11;1779479;81;20955;-66
2022/08/04 07:54:40;;;;;;;4.50;2.62;;;;;;;25.59;44.15;95755.64;1779228;80;21505;-66
2022/08/04 07:57:07;;;;;;;3.75;2.65;;;;;;;25.65;42.86;95755.16;1779238;80;20994;-66
2022/08/04 07:59:35;;;;;;;5.60;2.87;;;;;;;25.71;43.64;95757.41;1779563;81;21023;-66
2022/08/04 08:02:02;;;;;;;5.55;3.10;;;;;;;25.82;42.64;95755.23;1779288;81;20951;-66
2022/08/04 08:04:29;;;;;;;6.00;2.98;;;;;;;25.83;42.67;95752.43;1779281;80;20995;-66
2022/08/04 08:06:57;;;;;;;2.77;2.47;;;;;;;25.93;42.80;95755.78;1779575;80;21023;-66
2022/08/04 08:09:25;;;;;;;2.75;2.42;;;;;;;26.09;42.65;95759.04;1779279;81;21014;-66
2022/08/04 08:11:54;;;;;;;3.72;2.80;;;;;;;26.14;41.50;95750.58;1779564;81;21026;-67
2022/08/04 08:14:21;;;;;;;3.87;2.62;;;;;;;26.27;42.13;95755.39;1779375;81;21489;-67
2022/08/04 08:16:48;;;;;;;3.02;2.25;;;;;;;26.48;41.84;95754.17;1779538;80;20995;-66
2022/08/04 08:19:15;;;;;;;3.02;2.70;;;;;;;26.67;42.08;95755.82;1779577;81;20999;-66
2022/08/04 08:21:48;;;;;;;4.80;2.70;;;;;;;26.87;41.35;95759.62;1779182;81;21552;-66
2022/08/04 08:24:16;;;;;;;3.65;2.58;;;;;;;27.04;39.88;95755.56;1779156;80;21066;-66
2022/08/04 08:26:43;;;;;;;5.05;2.60;;;;;;;27.09;39.21;95757.86;1779327;80;20995;-66
2022/08/04 08:29:10;;;;;;;3.22;2.52;;;;;;;27.19;40.24;95757.04;1779122;80;21102;-66
2022/08/04 08:31:36;;;;;;;6.53;2.58;;;;;;;27.26;39.63;95760.09;1779253;81;21014;-66
2022/08/04 08:34:04;;;;;;;6.70;2.83;;;;;;;27.38;39.15;95748.73;1778966;81;20987;-67
2022/08/04 08:36:45;;;;;;;4.90;2.80;;;;;;;27.53;39.56;95753.38;1779468;80;20972;-66
2022/08/04 08:39:46;;;;;;;5.53;2.60;;;;;;;27.56;37.17;95766.16;1779093;81;21067;-67
2022/08/04 08:42:27;;;;;;;2.65;2.42;;;;;;;27.62;37.15;95756.68;1731749;81;20995;-67
2022/08/04 08:45:10;;;;;;;4.20;2.33;;;;;;;27.69;36.38;95753.79;1779249;80;21059;-66
2022/08/04 08:48:11;;;;;;;2.80;2.33;;;;;;;27.87;36.98;95760.03;1779513;81;21007;-67
2022/08/04 08:51:13;;;;;;;3.40;2.55;;;;;;;28.01;36.54;95758.38;1726040;81;21082;-67
2022/08/04 08:53:54;;;;;;;3.40;2.40;;;;;;;28.03;36.42;95761.81;1779826;80;21484;-67
2022/08/04 08:57:00;;;;;;;5.08;2.20;;;;;;;28.23;36.76;95765.03;1779621;81;21419;-66
2022/08/04 09:00:09;;;;;;;2.80;2.60;;;;;;;28.41;35.88;95766.64;1755893;81;21011;-66
2022/08/04 09:03:05;;;;;;;3.10;2.75;;;;;;;28.26;33.44;95756.61;1715531;83;21530;-66
2022/08/04 09:06:04;;;;;;;2.80;2.47;;;;;;;28.14;35.21;95757.67;1776517;81;21070;-67
2022/08/04 09:08:53;;;;;;;4.30;2.83;;;;;;;28.33;33.44;95756.95;1779416;81;21015;-66
2022/08/04 09:11:25;;;;;;;3.92;3.10;;;;;;;28.52;34.82;95751.30;1760626;81;21083;-67
2022/08/04 09:14:07;;;;;;;3.42;3.00;;;;;;;28.76;34.04;95757.78;1779647;80;21456;-66
2022/08/04 09:16:39;;;;;;;4.72;3.60;;;;;;;28.67;28.11;95754.02;1772021;81;21082;-67
2022/08/04 09:19:30;;;;;;;5.17;3.27;;;;;;;28.84;30.65;95753.88;1779200;81;21592;-66
2022/08/04 09:22:02;;;;;;;6.83;2.90;;;;;;;29.12;30.50;95748.22;1779474;81;21063;-67
2022/08/04 09:24:41;;;;;;;3.20;3.00;;;;;;;29.43;31.06;95750.86;1779625;81;21027;-66
2022/08/04 09:27:19;;;;;;;4.35;3.00;;;;;;;29.38;30.40;95751.78;1779313;81;21047;-66
2022/08/04 09:30:05;;;;;;;5.25;2.90;;;;;;;29.05;30.09;95752.45;1779319;81;21051;-66
2022/08/04 09:32:37;;;;;;;5.70;3.17;;;;;;;28.63;30.28;95766.16;1779575;80;20970;-66
2022/08/04 09:35:38;;;;;;;3.62;3.30;;;;;;;28.88;29.86;95755.34;1778852;81;21019;-66
2022/08/04 09:38:37;;;;;;;3.77;3.42;;;;;;;29.27;28.99;95751.41;1779470;81;20999;-66
2022/08/04 09:41:24;;;;;;;3.77;3.40;;;;;;;29.63;28.58;95755.32;1779082;81;21568;-66
2022/08/04 09:44:05;;;;;;;3.85;3.55;;;;;;;29.58;28.35;95749.95;1779327;81;21086;-66
2022/08/04 09:47:01;;;;;;;5.42;3.40;;;;;;;29.40;28.76;95752.50;1778970;81;21026;-66
2022/08/04 09:49:45;;;;;;;8.05;3.15;;;;;;;29.49;28.43;95755.75;1779292;80;21472;-67
2022/08/04 09:52:26;;;;;;;3.40;3.10;;;;;;;29.82;28.43;95742.28;1779271;81;21018;-66
2022/08/04 09:55:25;;;;;;;4.33;3.60;;;;;;;29.98;27.93;95743.05;1779387;80;21445;-66
2022/08/04 09:58:03;;;;;;;5.92;2.87;;;;;;;29.67;28.14;95746.43;1779410;81;20971;-66
2022/08/04 10:00:37;;;;;;;3.40;2.92;;;;;;;29.37;28.16;95752.80;1741438;81;21540;-66
2022/08/04 10:03:04;;;;;;;3.08;2.87;;;;;;;29.49;29.38;95744.38;1778967;81;20968;-66
2022/08/04 10:06:03;;;;;;;3.37;2.72;;;;;;;29.35;29.42;95755.64;1779627;81;20952;-66
2022/08/04 10:08:58;;;;;;;3.25;3.05;;;;;;;28.84;28.63;95745.73;1779292;81;21015;-66
2022/08/04 10:11:54;;;;;;;5.35;3.47;;;;;;;28.96;29.58;95741.92;1779723;80;21014;-66
2022/08/04 10:14:38;;;;;;;3.35;3.15;;;;;;;29.63;29.86;95740.87;1779446;80;21489;-66
2022/08/04 10:17:54;;;;;;;2.90;2.70;;;;;;;29.83;26.85;95740.41;1767359;81;21022;-66
2022/08/04 10:20:43;;;;;;;3.77;2.67;;;;;;;30.02;27.38;95731.40;1779432;80;21074;-66
2022/08/04 10:23:53;;;;;;;3.12;2.90;;;;;;;30.31;26.60;95730.01;1779094;81;21090;-66
2022/08/04 10:26:37;;;;;;;3.05;2.60;;;;;;;30.44;25.52;95727.81;1779473;80;21051;-66
2022/08/04 10:29:16;;;;;;;3.83;2.60;;;;;;;30.52;25.96;95731.20;1778168;81;21035;-66
2022/08/04 10:31:48;;;;;;;3.00;2.80;;;;;;;30.55;25.05;95724.08;1779254;80;21063;-66
2022/08/04 10:34:28;;;;;;;2.80;2.60;;;;;;;30.77;25.72;95726.44;1736789;81;21536;-66
2022/08/04 10:37:07;;;;;;;5.60;2.40;;;;;;;30.95;25.00;95725.17;1779473;80;21003;-66
2022/08/04 10:39:42;;;;;;;3.22;3.02;;;;;;;31.25;25.97;95718.55;1750841;81;21505;-66
2022/08/04 10:42:23;;;;;;;3.12;2.83;;;;;;;31.50;25.51;95718.86;1779440;81;20988;-66
2022/08/04 10:45:18;;;;;;;3.27;2.77;;;;;;;31.43;23.67;95712.30;1779252;81;21481;-66
2022/08/04 10:48:05;;;;;;;4.62;2.67;;;;;;;30.83;23.89;95728.59;1779512;80;21500;-66
2022/08/04 10:50:35;;;;;;;3.35;2.80;;;;;;;29.85;24.72;95722.09;1779207;80;20975;-66
2022/08/04 10:53:10;;;;;;;2.90;2.70;;;;;;;29.75;25.81;95726.17;1779662;80;20967;-66
2022/08/04 10:56:08;;;;;;;3.08;2.85;;;;;;;30.09;26.18;95724.34;1779351;81;21035;-66
2022/08/04 10:58:55;;;;;;;3.15;2.62;;;;;;;30.19;24.79;95721.98;1778661;81;21054;-66
2022/08/04 11:01:36;;;;;;;3.00;2.80;;;;;;;30.47;24.85;95722.61;1779443;80;21018;-66
2022/08/04 11:04:11;;;;;;;3.00;2.72;;;;;;;30.90;25.85;95717.10;1779447;80;21013;-67
2022/08/04 11:06:39;;;;;;;3.83;2.83;;;;;;;31.02;24.82;95716.75;1778689;81;21078;-66
2022/08/04 11:09:06;;;;;;;20.62;3.22;;;;;;;31.29;24.20;95715.00;1779495;81;21087;-66
2022/08/04 11:11:48;;;;;;;2.80;2.60;;;;;;;31.51;24.85;95719.72;1779130;81;20988;-66
2022/08/04 11:14:22;;;;;;;6.08;2.92;;;;;;;31.76;24.54;95716.73;1771627;81;20963;-66
2022/08/04 11:17:08;;;;;;;4.28;3.20;;;;;;;31.86;23.24;95729.27;1784530;80;21547;-66
2022/08/04 11:19:46;;;;;;;2.83;2.62;;;;;;;31.35;23.24;95718.98;1784770;80;21054;-66
2022/08/04 11:22:27;;;;;;;5.58;2.90;;;;;;;31.09;24.34;95721.58;1758791;80;21058;-66
2022/08/04 11:25:23;;;;;;;3.00;2.80;;;;;;;31.17;24.17;95721.67;1785434;80;20991;-66
2022/08/04 11:28:08;;;;;;;3.20;2.90;;;;;;;31.46;24.00;95719.66;1730878;80;21356;-66
2022/08/04 11:30:57;;;;;;;5.17;2.52;;;;;;;31.62;24.38;95716.75;1784952;80;21547;-66
2022/08/04 11:33:35;;;;;;;2.70;2.50;;;;;;;31.98;22.53;95724.95;1784901;80;21006;-66
2022/08/04 11:36:10;;;;;;;2.92;2.72;;;;;;;32.10;23.22;95717.75;1785138;80;21007;-66
2022/08/04 11:38:48;;;;;;;2.90;2.70;;;;;;;32.20;22.47;95716.27;1784773;80;21026;-66
2022/08/04 11:41:19;;;;;;;4.80;2.90;;;;;;;32.21;22.72;95712.54;1784946;80;21053;-66
2022/08/04 11:43:59;;;;;;;3.37;2.90;;;;;;;32.26;22.90;95712.92;1784896;80;21504;-66
2022/08/04 11:46:39;;;;;;;2.98;2.77;;;;;;;32.16;21.90;95710.80;1784919;80;20958;-66
2022/08/04 11:49:35;;;;;;;3.02;2.70;;;;;;;32.41;22.83;95706.37;1785106;80;21033;-66
2022/08/04 11:52:05;;;;;;;4.87;3.05;;;;;;;32.32;21.75;95712.78;1759100;80;21440;-66
2022/08/04 11:54:33;;;;;;;3.10;2.90;;;;;;;32.46;21.06;95716.81;1784860;80;20967;-66
2022/08/04 11:57:01;;;;;;;3.15;2.90;;;;;;;32.28;21.65;95708.16;1785206;80;21051;-66
2022/08/04 11:59:30;;;;;;;3.95;2.98;;;;;;;32.72;21.69;95706.75;1784890;80;20971;-66
2022/08/04 12:02:41;;;;;;;2.70;2.40;;;;;;;32.81;21.11;95699.95;1784979;80;21428;-66
2022/08/04 12:05:09;;;;;;;5.33;2.62;;;;;;;33.22;21.83;95705.13;1651155;86;21062;-66
2022/08/04 12:07:49;;;;;;;2.80;2.60;;;;;;;33.45;19.78;95703.14;1742550;80;21033;-67
2022/08/04 12:10:37;;;;;;;2.40;2.20;;;;;;;33.83;21.24;95701.17;1785112;80;21119;-67
2022/08/04 12:13:42;;;;;;;2.70;2.50;;;;;;;34.52;19.49;95706.31;1784373;80;21074;-67
2022/08/04 12:16:23;;;;;;;4.00;2.30;;;;;;;34.66;18.25;95694.67;1781637;80;21023;-66
2022/08/04 12:19:05;;;;;;;2.67;2.47;;;;;;;34.68;18.11;95703.58;1779297;80;21087;-66
2022/08/04 12:21:40;;;;;;;2.27;2.12;;;;;;;34.20;19.06;95701.75;1779323;80;21012;-67
2022/08/04 12:24:15;;;;;;;3.75;2.50;;;;;;;34.74;18.32;95699.28;1779573;80;21054;-67
2022/08/04 12:26:50;;;;;;;2.58;2.37;;;;;;;35.09;18.62;95698.51;1779512;80;20974;-67
2022/08/04 12:29:19;;;;;;;2.55;2.35;;;;;;;35.41;17.91;95693.39;1779221;80;20987;-67
2022/08/04 12:32:12;;;;;;;4.03;2.30;;;;;;;35.51;17.36;95695.91;1779476;81;21041;-67
2022/08/04 12:34:44;;;;;;;2.20;2.05;;;;;;;35.56;17.28;95692.10;1779119;81;21051;-67